sensor_id;sensor_type;location;lat;lon;timestamp;pressure;altitude;pressure_sealevel;temperature;humidity
72950;BME280;64868;45.710;9.590;2023-05-16T00:02:05;98032.13;;;13.86;73.21
72950;BME280;64868;45.710;9.590;2023-05-16T00:04:38;98027.63;;;13.77;73.27
72950;BME280;64868;45.710;9.590;2023-05-16T00:07:10;98027.78;;;13.75;73.11
72950;BME280;64868;45.710;9.590;2023-05-16T00:09:43;98017.75;;;13.84;73.33
72950;BME280;64868;45.710;9.590;2023-05-16T00:12:16;98017.38;;;13.79;72.43
72950;BME280;64868;45.710;9.590;2023-05-16T00:14:48;98020.09;;;13.97;71.84
72950;BME280;64868;45.710;9.590;2023-05-16T00:17:21;98014.22;;;13.92;72.26
72950;BME280;64868;45.710;9.590;2023-05-16T00:19:54;98004.13;;;13.92;72.21
72950;BME280;64868;45.710;9.590;2023-05-16T00:22:25;98003.03;;;13.85;72.66
72950;BME280;64868;45.710;9.590;2023-05-16T00:24:58;98008.03;;;13.90;72.60
72950;BME280;64868;45.710;9.590;2023-05-16T00:27:30;97992.31;;;13.92;72.13
72950;BME280;64868;45.710;9.590;2023-05-16T00:30:03;97997.63;;;13.93;71.63
72950;BME280;64868;45.710;9.590;2023-05-16T00:32:36;97995.34;;;13.88;71.67
72950;BME280;64868;45.710;9.590;2023-05-16T00:35:08;97995.13;;;13.82;72.24
72950;BME280;64868;45.710;9.590;2023-05-16T00:37:39;97988.94;;;13.80;72.25
72950;BME280;64868;45.710;9.590;2023-05-16T00:40:12;97993.41;;;13.81;71.65
72950;BME280;64868;45.710;9.590;2023-05-16T00:42:45;97986.84;;;13.74;72.58
72950;BME280;64868;45.710;9.590;2023-05-16T00:45:17;97981.66;;;13.71;72.44
72950;BME280;64868;45.710;9.590;2023-05-16T00:47:48;97974.94;;;13.65;72.44
72950;BME280;64868;45.710;9.590;2023-05-16T00:50:18;97982.22;;;13.74;71.09
72950;BME280;64868;45.710;9.590;2023-05-16T00:52:51;97987.31;;;13.69;72.11
72950;BME280;64868;45.710;9.590;2023-05-16T00:55:23;97982.31;;;13.65;71.36
72950;BME280;64868;45.710;9.590;2023-05-16T00:57:54;97990.97;;;13.78;71.38
72950;BME280;64868;45.710;9.590;2023-05-16T01:00:24;97979.09;;;13.69;71.61
72950;BME280;64868;45.710;9.590;2023-05-16T01:02:57;97981.59;;;13.80;70.99
72950;BME280;64868;45.710;9.590;2023-05-16T01:05:30;97985.44;;;13.70;71.53
72950;BME280;64868;45.710;9.590;2023-05-16T01:08:02;97974.22;;;13.63;71.50
72950;BME280;64868;45.710;9.590;2023-05-16T01:10:37;97973.00;;;13.57;71.61
72950;BME280;64868;45.710;9.590;2023-05-16T01:13:16;97968.22;;;13.59;71.49
72950;BME280;64868;45.710;9.590;2023-05-16T01:15:58;97962.91;;;13.58;70.76
72950;BME280;64868;45.710;9.590;2023-05-16T01:21:05;97957.00;;;13.71;70.16
72950;BME280;64868;45.710;9.590;2023-05-16T01:23:48;97950.69;;;13.70;70.16
72950;BME280;64868;45.710;9.590;2023-05-16T01:26:26;97944.59;;;13.58;70.53
72950;BME280;64868;45.710;9.590;2023-05-16T01:28:59;97948.03;;;13.60;70.59
72950;BME280;64868;45.710;9.590;2023-05-16T01:31:30;97950.84;;;13.51;70.61
72950;BME280;64868;45.710;9.590;2023-05-16T01:34:02;97941.78;;;13.50;70.70
72950;BME280;64868;45.710;9.590;2023-05-16T01:36:56;97938.19;;;13.50;71.00
72950;BME280;64868;45.710;9.590;2023-05-16T01:39:57;97937.16;;;13.69;70.92
72950;BME280;64868;45.710;9.590;2023-05-16T01:42:33;97936.84;;;13.54;70.63
72950;BME280;64868;45.710;9.590;2023-05-16T01:47:41;97926.44;;;13.39;70.39
72950;BME280;64868;45.710;9.590;2023-05-16T01:50:19;97930.69;;;13.34;71.19
72950;BME280;64868;45.710;9.590;2023-05-16T01:53:05;97928.06;;;13.32;71.67
72950;BME280;64868;45.710;9.590;2023-05-16T01:55:52;97930.50;;;13.35;70.19
72950;BME280;64868;45.710;9.590;2023-05-16T01:58:25;97920.91;;;13.22;70.80
72950;BME280;64868;45.710;9.590;2023-05-16T02:01:01;97912.31;;;13.26;70.45
72950;BME280;64868;45.710;9.590;2023-05-16T02:03:35;97919.78;;;13.24;71.41
72950;BME280;64868;45.710;9.590;2023-05-16T02:06:07;97916.09;;;13.15;71.43
72950;BME280;64868;45.710;9.590;2023-05-16T02:08:40;97905.75;;;13.09;70.50
72950;BME280;64868;45.710;9.590;2023-05-16T02:11:10;97910.66;;;13.06;70.86
72950;BME280;64868;45.710;9.590;2023-05-16T02:13:41;97902.31;;;13.07;70.61
72950;BME280;64868;45.710;9.590;2023-05-16T02:16:16;97895.81;;;13.08;71.30
72950;BME280;64868;45.710;9.590;2023-05-16T02:18:49;97906.59;;;13.10;71.27
72950;BME280;64868;45.710;9.590;2023-05-16T02:21:22;97890.53;;;13.07;70.23
72950;BME280;64868;45.710;9.590;2023-05-16T02:23:54;97886.75;;;13.08;69.95
72950;BME280;64868;45.710;9.590;2023-05-16T02:26:27;97906.66;;;13.28;69.10
72950;BME280;64868;45.710;9.590;2023-05-16T02:28:57;97887.22;;;13.21;69.52
72950;BME280;64868;45.710;9.590;2023-05-16T02:31:31;97880.44;;;13.25;68.63
72950;BME280;64868;45.710;9.590;2023-05-16T02:34:03;97878.56;;;13.26;68.48
72950;BME280;64868;45.710;9.590;2023-05-16T02:36:36;97887.53;;;13.18;69.47
72950;BME280;64868;45.710;9.590;2023-05-16T02:39:06;97879.78;;;13.13;69.07
72950;BME280;64868;45.710;9.590;2023-05-16T02:41:39;97871.19;;;13.08;68.95
72950;BME280;64868;45.710;9.590;2023-05-16T02:44:11;97878.38;;;13.09;69.37
72950;BME280;64868;45.710;9.590;2023-05-16T02:46:44;97876.44;;;13.02;68.94
72950;BME280;64868;45.710;9.590;2023-05-16T02:49:14;97866.22;;;13.04;68.67
72950;BME280;64868;45.710;9.590;2023-05-16T02:51:44;97866.25;;;12.94;68.73
72950;BME280;64868;45.710;9.590;2023-05-16T02:54:17;97858.69;;;12.88;69.46
72950;BME280;64868;45.710;9.590;2023-05-16T02:56:49;97852.56;;;12.76;70.19
72950;BME280;64868;45.710;9.590;2023-05-16T02:59:22;97866.41;;;12.75;70.34
72950;BME280;64868;45.710;9.590;2023-05-16T03:01:55;97857.81;;;12.70;70.53
72950;BME280;64868;45.710;9.590;2023-05-16T03:04:25;97853.75;;;12.74;69.08
72950;BME280;64868;45.710;9.590;2023-05-16T03:06:58;97850.06;;;12.83;68.48
72950;BME280;64868;45.710;9.590;2023-05-16T03:09:30;97841.31;;;12.79;68.76
72950;BME280;64868;45.710;9.590;2023-05-16T03:12:00;97843.66;;;12.74;69.19
72950;BME280;64868;45.710;9.590;2023-05-16T03:14:31;97840.38;;;12.71;69.26
72950;BME280;64868;45.710;9.590;2023-05-16T03:17:03;97832.66;;;12.66;69.63
72950;BME280;64868;45.710;9.590;2023-05-16T03:19:36;97820.53;;;12.69;68.42
72950;BME280;64868;45.710;9.590;2023-05-16T03:22:04;97830.47;;;12.70;68.31
72950;BME280;64868;45.710;9.590;2023-05-16T03:24:31;97837.34;;;12.74;69.15
72950;BME280;64868;45.710;9.590;2023-05-16T03:27:01;97832.00;;;12.72;68.42
72950;BME280;64868;45.710;9.590;2023-05-16T03:29:34;97834.81;;;12.80;67.68
72950;BME280;64868;45.710;9.590;2023-05-16T03:32:07;97823.25;;;12.69;68.83
72950;BME280;64868;45.710;9.590;2023-05-16T03:34:39;97825.13;;;12.68;67.91
72950;BME280;64868;45.710;9.590;2023-05-16T03:37:12;97828.03;;;12.66;68.71
72950;BME280;64868;45.710;9.590;2023-05-16T03:39:44;97816.72;;;12.61;68.23
72950;BME280;64868;45.710;9.590;2023-05-16T03:42:15;97825.56;;;12.73;68.16
72950;BME280;64868;45.710;9.590;2023-05-16T03:44:47;97830.31;;;12.71;66.94
72950;BME280;64868;45.710;9.590;2023-05-16T03:47:20;97818.25;;;12.64;66.89
72950;BME280;64868;45.710;9.590;2023-05-16T03:49:53;97832.88;;;12.73;67.86
72950;BME280;64868;45.710;9.590;2023-05-16T03:52:25;97820.47;;;12.78;66.62
72950;BME280;64868;45.710;9.590;2023-05-16T03:54:58;97821.06;;;12.72;66.59
72950;BME280;64868;45.710;9.590;2023-05-16T03:57:31;97823.41;;;12.67;68.09
72950;BME280;64868;45.710;9.590;2023-05-16T04:00:01;97825.22;;;12.76;66.79
72950;BME280;64868;45.710;9.590;2023-05-16T04:02:35;97815.22;;;12.67;67.45
72950;BME280;64868;45.710;9.590;2023-05-16T04:05:09;97817.19;;;12.75;66.52
72950;BME280;64868;45.710;9.590;2023-05-16T04:07:42;97812.53;;;12.57;67.22
72950;BME280;64868;45.710;9.590;2023-05-16T04:10:13;97818.19;;;12.74;66.80
72950;BME280;64868;45.710;9.590;2023-05-16T04:12:40;97806.63;;;12.62;67.15
72950;BME280;64868;45.710;9.590;2023-05-16T04:15:13;97818.03;;;12.75;66.36
72950;BME280;64868;45.710;9.590;2023-05-16T04:17:43;97822.66;;;12.75;67.58
72950;BME280;64868;45.710;9.590;2023-05-16T04:20:16;97815.16;;;12.77;66.65
72950;BME280;64868;45.710;9.590;2023-05-16T04:22:49;97820.00;;;12.83;65.73
72950;BME280;64868;45.710;9.590;2023-05-16T04:25:21;97814.59;;;12.91;65.21
72950;BME280;64868;45.710;9.590;2023-05-16T04:27:53;97806.38;;;12.91;65.01
72950;BME280;64868;45.710;9.590;2023-05-16T04:30:26;97814.28;;;12.94;65.40
72950;BME280;64868;45.710;9.590;2023-05-16T04:32:59;97817.94;;;13.03;64.79
72950;BME280;64868;45.710;9.590;2023-05-16T04:35:29;97807.25;;;13.09;65.00
72950;BME280;64868;45.710;9.590;2023-05-16T04:37:59;97802.63;;;13.10;64.94
72950;BME280;64868;45.710;9.590;2023-05-16T04:40:32;97800.28;;;13.15;65.12
72950;BME280;64868;45.710;9.590;2023-05-16T04:43:02;97798.50;;;13.24;64.74
72950;BME280;64868;45.710;9.590;2023-05-16T04:45:34;97798.56;;;13.32;64.04
72950;BME280;64868;45.710;9.590;2023-05-16T04:48:07;97804.00;;;13.50;62.67
72950;BME280;64868;45.710;9.590;2023-05-16T04:50:37;97809.84;;;13.55;62.13
72950;BME280;64868;45.710;9.590;2023-05-16T04:53:07;97799.06;;;13.53;62.38
72950;BME280;64868;45.710;9.590;2023-05-16T04:55:35;97817.94;;;13.56;62.59
72950;BME280;64868;45.710;9.590;2023-05-16T04:58:07;97806.00;;;13.66;61.53
72950;BME280;64868;45.710;9.590;2023-05-16T05:00:40;97800.03;;;13.70;60.91
72950;BME280;64868;45.710;9.590;2023-05-16T05:03:13;97804.69;;;13.78;61.77
72950;BME280;64868;45.710;9.590;2023-05-16T05:05:43;97794.44;;;13.80;61.16
72950;BME280;64868;45.710;9.590;2023-05-16T05:08:16;97803.59;;;13.97;61.24
72950;BME280;64868;45.710;9.590;2023-05-16T05:10:48;97801.69;;;13.89;61.21
72950;BME280;64868;45.710;9.590;2023-05-16T05:13:21;97807.56;;;13.94;60.97
72950;BME280;64868;45.710;9.590;2023-05-16T05:15:53;97793.34;;;13.99;60.82
72950;BME280;64868;45.710;9.590;2023-05-16T05:18:26;97793.94;;;14.19;60.34
72950;BME280;64868;45.710;9.590;2023-05-16T05:20:59;97786.78;;;14.26;59.92
72950;BME280;64868;45.710;9.590;2023-05-16T05:23:31;97786.16;;;14.40;59.11
72950;BME280;64868;45.710;9.590;2023-05-16T05:26:01;97792.69;;;14.47;58.14
72950;BME280;64868;45.710;9.590;2023-05-16T05:28:34;97797.06;;;14.66;57.53
72950;BME280;64868;45.710;9.590;2023-05-16T05:31:04;97790.34;;;14.60;56.84
72950;BME280;64868;45.710;9.590;2023-05-16T05:33:37;97804.06;;;14.60;57.58
72950;BME280;64868;45.710;9.590;2023-05-16T05:36:09;97795.69;;;14.70;57.30
72950;BME280;64868;45.710;9.590;2023-05-16T05:38:42;97809.56;;;14.69;57.08
72950;BME280;64868;45.710;9.590;2023-05-16T05:41:12;97803.09;;;14.86;57.43
72950;BME280;64868;45.710;9.590;2023-05-16T05:43:43;97811.34;;;14.94;56.31
72950;BME280;64868;45.710;9.590;2023-05-16T05:46:13;97807.94;;;15.00;55.67
72950;BME280;64868;45.710;9.590;2023-05-16T05:48:45;97807.06;;;15.16;56.30
72950;BME280;64868;45.710;9.590;2023-05-16T05:51:18;97802.78;;;15.22;55.94
72950;BME280;64868;45.710;9.590;2023-05-16T05:53:46;97804.50;;;15.39;55.65
72950;BME280;64868;45.710;9.590;2023-05-16T05:56:18;97791.78;;;15.46;55.08
72950;BME280;64868;45.710;9.590;2023-05-16T05:58:49;97787.31;;;15.62;54.54
72950;BME280;64868;45.710;9.590;2023-05-16T06:01:22;97796.75;;;15.67;54.22
72950;BME280;64868;45.710;9.590;2023-05-16T06:03:55;97787.84;;;15.65;54.13
72950;BME280;64868;45.710;9.590;2023-05-16T06:06:25;97798.97;;;15.88;53.65
72950;BME280;64868;45.710;9.590;2023-05-16T06:08:57;97801.63;;;16.13;52.58
72950;BME280;64868;45.710;9.590;2023-05-16T06:11:30;97789.91;;;16.27;52.56
72950;BME280;64868;45.710;9.590;2023-05-16T06:14:03;97798.03;;;16.51;52.25
72950;BME280;64868;45.710;9.590;2023-05-16T06:16:30;97788.34;;;16.95;51.22
72950;BME280;64868;45.710;9.590;2023-05-16T06:19:03;97786.66;;;17.78;49.65
72950;BME280;64868;45.710;9.590;2023-05-16T06:21:35;97785.16;;;18.85;48.03
72950;BME280;64868;45.710;9.590;2023-05-16T06:24:08;97792.47;;;20.07;44.39
72950;BME280;64868;45.710;9.590;2023-05-16T06:26:41;97793.88;;;20.59;42.06
72950;BME280;64868;45.710;9.590;2023-05-16T06:29:11;97795.13;;;21.11;41.66
72950;BME280;64868;45.710;9.590;2023-05-16T06:31:44;97793.34;;;24.78;34.67
72950;BME280;64868;45.710;9.590;2023-05-16T06:34:11;97811.97;;;24.40;34.61
72950;BME280;64868;45.710;9.590;2023-05-16T06:36:41;97802.25;;;23.04;36.30
72950;BME280;64868;45.710;9.590;2023-05-16T06:39:14;97809.53;;;22.07;38.04
72950;BME280;64868;45.710;9.590;2023-05-16T06:41:47;97821.03;;;21.58;39.74
72950;BME280;64868;45.710;9.590;2023-05-16T06:44:17;97823.66;;;24.06;35.41
72950;BME280;64868;45.710;9.590;2023-05-16T06:46:47;97822.28;;;25.32;32.06
72950;BME280;64868;45.710;9.590;2023-05-16T06:49:20;97829.97;;;24.13;34.65
72950;BME280;64868;45.710;9.590;2023-05-16T06:51:52;97835.44;;;25.43;32.85
72950;BME280;64868;45.710;9.590;2023-05-16T06:54:25;97850.31;;;25.97;31.49
72950;BME280;64868;45.710;9.590;2023-05-16T06:56:52;97837.66;;;26.48;30.77
72950;BME280;64868;45.710;9.590;2023-05-16T06:59:25;97855.47;;;27.17;30.95
72950;BME280;64868;45.710;9.590;2023-05-16T07:01:58;97853.59;;;24.97;33.44
72950;BME280;64868;45.710;9.590;2023-05-16T07:04:30;97861.69;;;23.48;36.64
72950;BME280;64868;45.710;9.590;2023-05-16T07:07:03;97872.25;;;21.62;40.25
72950;BME280;64868;45.710;9.590;2023-05-16T07:09:33;97872.41;;;18.94;47.05
72950;BME280;64868;45.710;9.590;2023-05-16T07:12:04;97874.41;;;18.27;49.61
72950;BME280;64868;45.710;9.590;2023-05-16T07:14:36;97870.19;;;18.16;50.70
72950;BME280;64868;45.710;9.590;2023-05-16T07:17:09;97872.59;;;17.81;51.52
72950;BME280;64868;45.710;9.590;2023-05-16T07:19:42;97877.28;;;17.81;52.49
72950;BME280;64868;45.710;9.590;2023-05-16T07:22:12;97874.22;;;17.67;53.09
72950;BME280;64868;45.710;9.590;2023-05-16T07:24:45;97880.53;;;17.53;53.46
72950;BME280;64868;45.710;9.590;2023-05-16T07:27:15;97880.75;;;18.12;52.43
72950;BME280;64868;45.710;9.590;2023-05-16T07:29:47;97897.28;;;17.51;53.88
72950;BME280;64868;45.710;9.590;2023-05-16T07:32:20;97899.84;;;17.76;53.07
72950;BME280;64868;45.710;9.590;2023-05-16T07:34:53;97890.78;;;17.44;53.51
72950;BME280;64868;45.710;9.590;2023-05-16T07:37:25;97907.31;;;17.44;54.34
72950;BME280;64868;45.710;9.590;2023-05-16T07:39:58;97899.13;;;17.59;54.48
72950;BME280;64868;45.710;9.590;2023-05-16T07:42:30;97892.13;;;17.48;54.23
72950;BME280;64868;45.710;9.590;2023-05-16T07:45:03;97903.91;;;17.65;54.57
72950;BME280;64868;45.710;9.590;2023-05-16T07:47:36;97909.00;;;17.68;54.86
72950;BME280;64868;45.710;9.590;2023-05-16T07:50:08;97909.56;;;17.41;56.05
72950;BME280;64868;45.710;9.590;2023-05-16T07:52:39;97914.66;;;17.29;56.19
72950;BME280;64868;45.710;9.590;2023-05-16T07:55:12;97919.31;;;17.51;56.02
72950;BME280;64868;45.710;9.590;2023-05-16T07:57:45;97914.50;;;17.22;57.15
72950;BME280;64868;45.710;9.590;2023-05-16T08:00:16;97917.25;;;16.91;57.87
72950;BME280;64868;45.710;9.590;2023-05-16T08:02:46;97918.31;;;16.90;58.69
72950;BME280;64868;45.710;9.590;2023-05-16T08:05:19;97921.25;;;16.81;58.79
72950;BME280;64868;45.710;9.590;2023-05-16T08:07:47;97907.25;;;16.98;59.13
72950;BME280;64868;45.710;9.590;2023-05-16T08:10:17;97913.34;;;17.17;58.33
72950;BME280;64868;45.710;9.590;2023-05-16T08:12:50;97902.69;;;17.14;58.79
72950;BME280;64868;45.710;9.590;2023-05-16T08:15:22;97911.34;;;17.34;57.34
72950;BME280;64868;45.710;9.590;2023-05-16T08:17:50;97913.63;;;17.53;57.12
72950;BME280;64868;45.710;9.590;2023-05-16T08:20:23;97900.19;;;17.27;57.50
72950;BME280;64868;45.710;9.590;2023-05-16T08:22:53;97902.53;;;17.38;58.48
72950;BME280;64868;45.710;9.590;2023-05-16T08:25:23;97901.31;;;17.41;57.92
72950;BME280;64868;45.710;9.590;2023-05-16T08:27:53;97896.47;;;17.20;59.00
72950;BME280;64868;45.710;9.590;2023-05-16T08:30:26;97903.28;;;17.32;59.15
72950;BME280;64868;45.710;9.590;2023-05-16T08:32:59;97908.69;;;17.17;59.51
72950;BME280;64868;45.710;9.590;2023-05-16T08:35:31;97919.09;;;17.30;58.71
72950;BME280;64868;45.710;9.590;2023-05-16T08:37:59;97913.97;;;17.27;59.23
72950;BME280;64868;45.710;9.590;2023-05-16T08:40:29;97913.00;;;17.12;59.25
72950;BME280;64868;45.710;9.590;2023-05-16T08:43:00;97912.03;;;17.59;58.29
72950;BME280;64868;45.710;9.590;2023-05-16T08:45:29;97909.38;;;17.42;58.77
72950;BME280;64868;45.710;9.590;2023-05-16T08:48:01;97902.72;;;17.60;58.58
72950;BME280;64868;45.710;9.590;2023-05-16T08:50:32;97910.63;;;17.63;58.19
72950;BME280;64868;45.710;9.590;2023-05-16T08:53:05;97894.00;;;17.71;57.27
72950;BME280;64868;45.710;9.590;2023-05-16T08:55:39;97905.47;;;17.60;57.87
72950;BME280;64868;45.710;9.590;2023-05-16T08:58:07;97893.72;;;17.43;58.67
72950;BME280;64868;45.710;9.590;2023-05-16T09:00:40;97901.50;;;17.62;58.24
72950;BME280;64868;45.710;9.590;2023-05-16T09:03:11;97893.81;;;17.72;57.90
72950;BME280;64868;45.710;9.590;2023-05-16T09:05:43;97875.84;;;17.62;57.79
72950;BME280;64868;45.710;9.590;2023-05-16T09:08:16;97886.38;;;17.81;57.94
72950;BME280;64868;45.710;9.590;2023-05-16T09:10:46;97873.59;;;18.18;57.10
72950;BME280;64868;45.710;9.590;2023-05-16T09:13:19;97877.16;;;18.27;55.92
72950;BME280;64868;45.710;9.590;2023-05-16T09:16:14;97883.06;;;18.38;55.81
72950;BME280;64868;45.710;9.590;2023-05-16T09:18:47;97878.56;;;18.08;57.41
72950;BME280;64868;45.710;9.590;2023-05-16T09:21:24;97873.13;;;17.99;57.59
72950;BME280;64868;45.710;9.590;2023-05-16T09:23:54;97863.53;;;18.25;56.76
72950;BME280;64868;45.710;9.590;2023-05-16T09:26:26;97877.34;;;17.87;56.78
72950;BME280;64868;45.710;9.590;2023-05-16T09:28:59;97876.94;;;18.13;56.44
72950;BME280;64868;45.710;9.590;2023-05-16T09:31:30;97878.25;;;18.03;57.18
72950;BME280;64868;45.710;9.590;2023-05-16T09:34:08;97870.38;;;17.77;58.56
72950;BME280;64868;45.710;9.590;2023-05-16T09:36:41;97867.97;;;17.96;58.43
72950;BME280;64868;45.710;9.590;2023-05-16T09:39:16;97865.50;;;18.02;58.84
72950;BME280;64868;45.710;9.590;2023-05-16T09:41:46;97875.28;;;17.89;59.11
72950;BME280;64868;45.710;9.590;2023-05-16T09:44:23;97873.09;;;17.85;59.09
72950;BME280;64868;45.710;9.590;2023-05-16T09:46:55;97869.16;;;17.79;59.09
72950;BME280;64868;45.710;9.590;2023-05-16T09:49:28;97878.97;;;17.59;59.90
72950;BME280;64868;45.710;9.590;2023-05-16T09:52:01;97884.03;;;17.70;61.02
72950;BME280;64868;45.710;9.590;2023-05-16T09:54:34;97899.25;;;17.43;62.13
72950;BME280;64868;45.710;9.590;2023-05-16T09:57:07;97914.22;;;17.63;61.40
72950;BME280;64868;45.710;9.590;2023-05-16T09:59:41;97916.19;;;18.01;60.00
72950;BME280;64868;45.710;9.590;2023-05-16T10:02:11;97919.75;;;18.24;60.17
72950;BME280;64868;45.710;9.590;2023-05-16T10:04:43;97931.03;;;17.77;61.29
72950;BME280;64868;45.710;9.590;2023-05-16T10:07:15;97929.50;;;17.74;61.50
72950;BME280;64868;45.710;9.590;2023-05-16T10:09:48;97924.16;;;18.33;59.12
72950;BME280;64868;45.710;9.590;2023-05-16T10:12:22;97940.41;;;17.90;60.44
72950;BME280;64868;45.710;9.590;2023-05-16T10:14:57;97955.06;;;17.91;59.39
72950;BME280;64868;45.710;9.590;2023-05-16T10:17:31;97959.06;;;17.88;59.49
72950;BME280;64868;45.710;9.590;2023-05-16T10:20:06;97961.00;;;17.80;59.16
72950;BME280;64868;45.710;9.590;2023-05-16T10:22:41;97956.56;;;17.70;59.22
72950;BME280;64868;45.710;9.590;2023-05-16T10:25:24;97960.53;;;17.45;60.22
72950;BME280;64868;45.710;9.590;2023-05-16T10:27:57;97966.44;;;17.02;62.02
72950;BME280;64868;45.710;9.590;2023-05-16T10:30:28;97959.94;;;16.87;62.91
72950;BME280;64868;45.710;9.590;2023-05-16T10:33:00;97964.19;;;17.06;63.16
72950;BME280;64868;45.710;9.590;2023-05-16T10:35:34;97953.66;;;17.41;62.65
72950;BME280;64868;45.710;9.590;2023-05-16T10:38:04;97951.50;;;17.28;60.81
72950;BME280;64868;45.710;9.590;2023-05-16T10:40:35;97962.00;;;17.56;63.01
72950;BME280;64868;45.710;9.590;2023-05-16T10:43:06;97969.56;;;17.62;61.91
72950;BME280;64868;45.710;9.590;2023-05-16T10:45:46;97967.59;;;17.70;61.85
72950;BME280;64868;45.710;9.590;2023-05-16T10:48:31;97961.22;;;17.70;63.65
72950;BME280;64868;45.710;9.590;2023-05-16T10:50:59;97967.34;;;17.26;63.23
72950;BME280;64868;45.710;9.590;2023-05-16T10:53:35;97971.03;;;17.10;64.62
72950;BME280;64868;45.710;9.590;2023-05-16T10:56:06;97959.03;;;17.03;64.45
72950;BME280;64868;45.710;9.590;2023-05-16T11:01:34;97966.63;;;16.93;64.33
72950;BME280;64868;45.710;9.590;2023-05-16T11:04:07;97957.13;;;17.03;63.04
72950;BME280;64868;45.710;9.590;2023-05-16T11:06:48;97936.41;;;17.16;63.34
72950;BME280;64868;45.710;9.590;2023-05-16T11:09:23;97951.91;;;17.48;63.28
72950;BME280;64868;45.710;9.590;2023-05-16T11:11:58;97955.78;;;17.62;62.77
72950;BME280;64868;45.710;9.590;2023-05-16T11:17:08;97948.06;;;17.80;63.85
72950;BME280;64868;45.710;9.590;2023-05-16T11:19:52;97950.47;;;17.83;63.68
72950;BME280;64868;45.710;9.590;2023-05-16T11:22:29;97936.81;;;17.90;64.79
72950;BME280;64868;45.710;9.590;2023-05-16T11:30:14;97930.94;;;18.45;62.53
72950;BME280;64868;45.710;9.590;2023-05-16T11:32:48;97918.59;;;18.56;63.27
72950;BME280;64868;45.710;9.590;2023-05-16T11:35:19;97910.75;;;18.60;64.65
72950;BME280;64868;45.710;9.590;2023-05-16T11:37:46;97926.19;;;18.69;64.39
72950;BME280;64868;45.710;9.590;2023-05-16T11:40:14;97915.41;;;18.59;61.54
72950;BME280;64868;45.710;9.590;2023-05-16T11:42:47;97937.41;;;18.67;60.69
72950;BME280;64868;45.710;9.590;2023-05-16T11:45:18;97931.03;;;18.67;60.66
72950;BME280;64868;45.710;9.590;2023-05-16T11:47:48;97927.63;;;18.65;61.06
72950;BME280;64868;45.710;9.590;2023-05-16T11:50:21;97929.63;;;18.86;61.48
72950;BME280;64868;45.710;9.590;2023-05-16T11:52:57;97921.88;;;19.26;61.13
72950;BME280;64868;45.710;9.590;2023-05-16T11:55:30;97916.81;;;19.65;58.17
72950;BME280;64868;45.710;9.590;2023-05-16T11:58:00;97901.22;;;19.79;58.42
72950;BME280;64868;45.710;9.590;2023-05-16T12:00:31;97907.66;;;19.86;56.12
72950;BME280;64868;45.710;9.590;2023-05-16T12:03:03;97908.09;;;20.39;55.56
72950;BME280;64868;45.710;9.590;2023-05-16T12:05:36;97916.22;;;20.69;52.92
72950;BME280;64868;45.710;9.590;2023-05-16T12:08:10;97916.94;;;20.50;55.66
72950;BME280;64868;45.710;9.590;2023-05-16T12:10:43;97912.63;;;20.47;57.37
72950;BME280;64868;45.710;9.590;2023-05-16T12:13:10;97905.66;;;20.51;57.27
72950;BME280;64868;45.710;9.590;2023-05-16T12:15:43;97904.81;;;20.85;57.42
72950;BME280;64868;45.710;9.590;2023-05-16T12:18:17;97906.53;;;20.30;57.31
72950;BME280;64868;45.710;9.590;2023-05-16T12:20:50;97897.13;;;20.25;57.33
72950;BME280;64868;45.710;9.590;2023-05-16T12:23:20;97907.94;;;20.48;58.08
72950;BME280;64868;45.710;9.590;2023-05-16T12:25:50;97898.72;;;20.40;57.61
72950;BME280;64868;45.710;9.590;2023-05-16T12:28:22;97899.00;;;20.46;57.08
72950;BME280;64868;45.710;9.590;2023-05-16T12:30:55;97899.59;;;20.13;57.36
72950;BME280;64868;45.710;9.590;2023-05-16T12:33:28;97888.94;;;19.88;58.01
72950;BME280;64868;45.710;9.590;2023-05-16T12:36:01;97883.94;;;19.77;57.36
72950;BME280;64868;45.710;9.590;2023-05-16T12:38:33;97880.22;;;19.63;60.35
72950;BME280;64868;45.710;9.590;2023-05-16T12:41:06;97876.41;;;19.92;58.71
72950;BME280;64868;45.710;9.590;2023-05-16T12:43:39;97875.16;;;19.95;59.24
72950;BME280;64868;45.710;9.590;2023-05-16T12:46:12;97862.00;;;19.97;59.63
72950;BME280;64868;45.710;9.590;2023-05-16T12:48:44;97851.78;;;19.98;59.38
72950;BME280;64868;45.710;9.590;2023-05-16T12:51:18;97852.22;;;19.73;60.45
72950;BME280;64868;45.710;9.590;2023-05-16T12:53:49;97854.25;;;19.86;59.46
72950;BME280;64868;45.710;9.590;2023-05-16T12:56:22;97844.78;;;20.30;57.89
72950;BME280;64868;45.710;9.590;2023-05-16T12:58:52;97836.75;;;20.35;56.05
72950;BME280;64868;45.710;9.590;2023-05-16T13:01:20;97827.34;;;20.01;56.61
72950;BME280;64868;45.710;9.590;2023-05-16T13:03:53;97821.41;;;19.55;57.38
72950;BME280;64868;45.710;9.590;2023-05-16T13:06:23;97825.16;;;19.26;59.16
72950;BME280;64868;45.710;9.590;2023-05-16T13:08:53;97825.69;;;19.36;61.13
72950;BME280;64868;45.710;9.590;2023-05-16T13:11:24;97825.09;;;19.62;60.36
72950;BME280;64868;45.710;9.590;2023-05-16T13:13:54;97825.47;;;19.59;59.69
72950;BME280;64868;45.710;9.590;2023-05-16T13:16:25;97836.91;;;19.99;58.38
72950;BME280;64868;45.710;9.590;2023-05-16T13:18:55;97837.56;;;20.01;57.94
72950;BME280;64868;45.710;9.590;2023-05-16T13:21:28;97846.84;;;20.21;57.21
72950;BME280;64868;45.710;9.590;2023-05-16T13:23:58;97838.25;;;20.72;56.88
72950;BME280;64868;45.710;9.590;2023-05-16T13:26:28;97842.97;;;20.78;54.05
72950;BME280;64868;45.710;9.590;2023-05-16T13:28:58;97842.81;;;20.52;54.59
72950;BME280;64868;45.710;9.590;2023-05-16T13:31:31;97831.66;;;20.73;54.92
72950;BME280;64868;45.710;9.590;2023-05-16T13:34:03;97830.94;;;21.12;53.17
72950;BME280;64868;45.710;9.590;2023-05-16T13:36:33;97822.94;;;21.51;51.93
72950;BME280;64868;45.710;9.590;2023-05-16T13:39:06;97823.72;;;21.25;51.99
72950;BME280;64868;45.710;9.590;2023-05-16T13:41:39;97824.69;;;21.52;52.51
72950;BME280;64868;45.710;9.590;2023-05-16T13:44:09;97825.31;;;21.74;51.49